Archival Weather

Fukuoka

Fukuoka, Japan (RJFF)

Report from: Tuesday, August 16, 2022 8:19 PM JST
Current time: Sunday, November 27, 2022 4:44 PM JST

Current weather
Weather history
Weather forecast

Present weatherHeavy thunderstorm with rain, mist
Temperature26.0°C (78.8°F)
Dew point26.0°C (78.8°F)
Winds 9 kts (4.6 m/s, 10.4 mph) South-Southwest (210°)
Visibility1.2 mi. (2 km)
Clouds Few clouds 1,000 ft. (305 m)
Few clouds with cumulonimbus 3,000 ft. (914 m)
Scattered clouds 3,500 ft. (1,067 m)
Ceiling: Broken clouds 4,000 ft. (1,219 m)
Altimeter29.74 in.Hg (1007 mB)
Precip. events C 8:02 PM
Relative humidity100 %
Density altitude1,930 ft. (588 m)
Remarks Special weather observation
Thunderstorm south southwest moving northeast
Flight conditions Instrument Meteorological Conditions
Raw dataSPJP31 KWBC 161124 SPECI RJFF 161119Z 21009KT 2000 R16/P2000N +TSRA BR FEW010 FEW030CB SCT035 BKN040 26/26 Q1007 RMK 1ST010 2CB030 4CU035 5CU040 A2976 FBL TS 15KM S-SW MOV NE
An error has occurred. This application may no longer respond until reloaded. Reload 🗙